Palermo, Italy
Current Conditions -  °F | °C
As of 6:20 PM on Friday 24 Oct 2014 (Local Time) from LICJ Reporting Station
Broken Clouds Broken Clouds  
Wind Chill: 20°   Ceiling: 3500
Heat Index: 20°   Visibility: 6mi
Dew Point: 11°   Wind: 9mph
Humidity: 56%   Direction: 330°NNW
Pressure: 29.88"   Gusts: NA
Location:  38.12°N, 13.36°E
Report Text: LICJ 241620Z 33008KT 9999 BKN035 20/11 Q1012
Loading
Personal Weather Stations






























Interactive Weather Map New forecast layout! Learn more

10-Day Weather Forecast

Advertisements
Track Severe Weather on mobile